Time;durP1;ratioP1;P1;durP2;ratioP2;P2;SDS_P1;SDS_P2;PMS_P1;PMS_P2;Temp;Humidity;BMP_temperature;BMP_pressure;BME280_temperature;BME280_humidity;BME280_pressure;Samples;Min_cycle;Max_cycle;Signal;HPM_P1;HPM_P2
2022/03/27 00:00:39;;;;;;;8.03;2.50;;;5.60;99.90;;;;;;5067672;28;20048;-34
2022/03/27 00:03:06;;;;;;;9.17;2.30;;;5.50;99.90;;;;;;5066254;28;20048;-32
2022/03/27 00:05:32;;;;;;;3.70;2.00;;;5.50;99.90;;;;;;5067995;28;20473;-34
2022/03/27 00:07:58;;;;;;;7.93;2.30;;;5.40;99.90;;;;;;5052759;28;20106;-30
2022/03/27 00:10:23;;;;;;;4.63;2.10;;;5.40;99.90;;;;;;5069450;28;20075;-33
2022/03/27 00:12:49;;;;;;;2.97;1.53;;;5.30;99.90;;;;;;5067773;28;20143;-34
2022/03/27 00:15:15;;;;;;;5.43;1.67;;;5.30;99.90;;;;;;5067882;28;20111;-33
2022/03/27 00:17:40;;;;;;;2.30;1.40;;;5.20;99.90;;;;;;5053160;28;20110;-34
2022/03/27 00:20:12;;;;;;;4.13;1.93;;;5.20;99.90;;;;;;5069426;28;20051;-32
2022/03/27 00:22:38;;;;;;;;;;;5.10;99.90;;;;;;5067127;28;20040;-33
2022/03/27 00:25:06;;;;;;;3.43;2.10;;;5.10;99.90;;;;;;5067190;28;20395;-31
2022/03/27 00:27:32;;;;;;;9.77;5.30;;;5.10;99.90;;;;;;5051182;28;20123;-33
2022/03/27 00:29:58;;;;;;;14.50;9.80;;;5.10;99.90;;;;;;5067734;28;20418;-34
2022/03/27 00:32:24;;;;;;;10.37;6.33;;;5.10;99.90;;;;;;5065576;28;20527;-33
2022/03/27 00:34:50;;;;;;;8.70;3.97;;;5.20;99.90;;;;;;5066974;28;20044;-32
2022/03/27 00:37:16;;;;;;;6.20;3.23;;;5.10;99.90;;;;;;5051360;28;20127;-30
2022/03/27 00:39:42;;;;;;;6.97;3.60;;;5.20;99.90;;;;;;5068639;28;20044;-32
2022/03/27 00:42:08;;;;;;;4.87;2.70;;;5.10;99.90;;;;;;5066385;28;20056;-32
2022/03/27 00:44:35;;;;;;;7.10;2.40;;;5.10;99.90;;;;;;5064818;28;20055;-32
2022/03/27 00:47:02;;;;;;;6.50;2.80;;;5.20;99.90;;;;;;5052014;28;20065;-33
2022/03/27 00:49:28;;;;;;;8.87;3.53;;;5.20;99.90;;;;;;5062885;28;20051;-35
2022/03/27 00:51:54;;;;;;;5.60;3.67;;;5.20;99.90;;;;;;5061581;28;20528;-31
2022/03/27 00:54:21;;;;;;;7.20;4.40;;;5.30;99.90;;;;;;5068046;28;20063;-32
2022/03/27 00:56:46;;;;;;;10.10;5.00;;;5.20;99.90;;;;;;5052614;28;20059;-33
2022/03/27 00:59:13;;;;;;;6.73;4.40;;;5.20;99.90;;;;;;5067900;28;20044;-33
2022/03/27 01:01:39;;;;;;;5.23;4.20;;;5.10;99.90;;;;;;5063924;28;20062;-31
2022/03/27 01:04:07;;;;;;;11.50;5.27;;;5.20;99.90;;;;;;5065246;28;20544;-32
2022/03/27 01:06:44;;;;;;;12.07;5.47;;;5.10;99.90;;;;;;5051828;28;20484;-32
2022/03/27 01:09:35;;;;;;;9.37;4.70;;;5.10;99.90;;;;;;5060828;28;20045;-33
2022/03/27 01:12:22;;;;;;;9.48;4.63;;;5.10;99.90;;;;;;5067866;28;20125;-33
2022/03/27 01:14:49;;;;;;;12.13;5.00;;;5.10;99.90;;;;;;5067463;28;20052;-33
2022/03/27 01:17:18;;;;;;;12.60;5.30;;;5.10;99.90;;;;;;5051966;28;20049;-31
2022/03/27 01:19:49;;;;;;;14.97;5.40;;;5.10;99.90;;;;;;5066490;28;20446;-31
2022/03/27 01:22:16;;;;;;;7.73;4.20;;;5.10;99.90;;;;;;5066118;28;20132;-32
2022/03/27 01:24:46;;;;;;;8.80;3.87;;;5.20;99.90;;;;;;5067898;28;20128;-33
2022/03/27 01:27:12;;;;;;;13.37;4.77;;;5.10;99.90;;;;;;5049693;28;20123;-34
2022/03/27 01:29:38;;;;;;;10.07;4.07;;;5.10;99.90;;;;;;5067801;28;20056;-32
2022/03/27 01:32:07;;;;;;;13.10;4.87;;;5.10;99.90;;;;;;5066478;28;20504;-32
2022/03/27 01:34:34;;;;;;;11.17;4.23;;;5.20;99.90;;;;;;5064540;28;20072;-32
2022/03/27 01:37:09;;;;;;;8.33;4.47;;;5.10;99.90;;;;;;5052035;28;20487;-34
2022/03/27 01:39:36;;;;;;;6.97;3.57;;;5.10;99.90;;;;;;5068035;28;20048;-31
2022/03/27 01:42:03;;;;;;;8.47;3.67;;;5.10;99.90;;;;;;5063732;28;20105;-31
2022/03/27 01:44:29;;;;;;;6.20;3.67;;;5.10;99.90;;;;;;5062959;28;20164;-33
2022/03/27 01:46:55;;;;;;;7.10;3.83;;;5.00;99.90;;;;;;5052238;28;20634;-30
2022/03/27 01:49:22;;;;;;;8.40;4.07;;;5.00;99.90;;;;;;5063154;28;20544;-31
2022/03/27 01:51:48;;;;;;;12.87;5.13;;;5.00;99.90;;;;;;5065362;28;20041;-33
2022/03/27 01:54:14;;;;;;;6.30;4.60;;;5.00;99.90;;;;;;5066716;28;20452;-35
2022/03/27 01:56:40;;;;;;;10.63;4.97;;;4.90;99.90;;;;;;5053844;28;20048;-34
2022/03/27 01:59:09;;;;;;;10.87;4.80;;;4.90;99.90;;;;;;5064933;28;20132;-33
2022/03/27 02:01:37;;;;;;;11.83;5.53;;;4.90;99.90;;;;;;5062951;28;20496;-34
2022/03/27 02:04:03;;;;;;;10.13;4.77;;;4.90;99.90;;;;;;5063869;28;20037;-31
2022/03/27 02:06:30;;;;;;;9.77;4.37;;;4.90;99.90;;;;;;5054886;28;20484;-33
2022/03/27 02:08:58;;;;;;;11.37;4.73;;;4.90;99.90;;;;;;5062735;28;20040;-34
2022/03/27 02:11:23;;;;;;;12.13;5.07;;;4.80;99.90;;;;;;5067272;28;20052;-34
2022/03/27 02:13:50;;;;;;;9.17;4.87;;;4.80;99.90;;;;;;5063775;28;20055;-33
2022/03/27 02:16:16;;;;;;;7.13;3.70;;;4.80;99.90;;;;;;5057251;28;20037;-35
2022/03/27 02:18:42;;;;;;;9.60;4.37;;;4.80;99.90;;;;;;5059742;28;20056;-35
2022/03/27 02:21:08;;;;;;;8.57;4.53;;;4.80;99.90;;;;;;5065984;28;20048;-31
2022/03/27 02:23:34;;;;;;;7.47;4.67;;;4.70;99.90;;;;;;5062705;28;20048;-33
2022/03/27 02:26:01;;;;;;;7.70;4.23;;;4.70;99.90;;;;;;5066960;28;20472;-32
2022/03/27 02:28:27;;;;;;;8.77;3.73;;;4.70;99.90;;;;;;5050176;28;20072;-34
2022/03/27 02:30:53;;;;;;;6.57;4.27;;;4.70;99.90;;;;;;5066787;28;20419;-33
2022/03/27 02:33:19;;;;;;;7.90;4.47;;;4.60;99.90;;;;;;5063142;28;20064;-32
2022/03/27 02:35:45;;;;;;;9.20;4.43;;;4.70;99.90;;;;;;5066485;28;20043;-32
2022/03/27 02:38:12;;;;;;;9.90;4.47;;;4.60;99.90;;;;;;5033091;28;20036;-32
2022/03/27 02:40:39;;;;;;;11.07;4.33;;;4.60;99.90;;;;;;5065364;28;20048;-34
2022/03/27 02:43:05;;;;;;;11.80;4.50;;;4.60;99.90;;;;;;5065419;28;20098;-34
2022/03/27 02:45:32;;;;;;;9.17;4.10;;;4.60;99.90;;;;;;5065541;28;20106;-33
2022/03/27 02:47:58;;;;;;;9.17;4.00;;;4.50;99.90;;;;;;5048430;28;20060;-35
2022/03/27 02:50:27;;;;;;;8.73;4.33;;;4.50;99.90;;;;;;5064226;28;20059;-32
2022/03/27 02:52:53;;;;;;;9.57;4.30;;;4.40;99.90;;;;;;5059677;28;20048;-31
2022/03/27 02:55:20;;;;;;;9.77;4.67;;;4.40;99.90;;;;;;5064822;28;20727;-31
2022/03/27 02:57:46;;;;;;;9.10;4.20;;;4.40;99.90;;;;;;5050293;28;20072;-34
2022/03/27 03:00:12;;;;;;;8.73;3.87;;;4.40;99.90;;;;;;5064128;28;20115;-33
2022/03/27 03:02:38;;;;;;;11.03;4.30;;;4.30;99.90;;;;;;5065323;28;20040;-34
2022/03/27 03:05:04;;;;;;;14.90;4.50;;;4.30;99.90;;;;;;5065302;28;20091;-34
2022/03/27 03:07:33;;;;;;;12.27;4.47;;;4.30;99.90;;;;;;5050665;28;20040;-33
2022/03/27 03:10:00;;;;;;;11.83;4.00;;;4.30;99.90;;;;;;5064818;28;20049;-31
2022/03/27 03:12:26;;;;;;;9.77;4.23;;;4.20;99.90;;;;;;5065011;28;20407;-33
2022/03/27 03:14:55;;;;;;;8.63;4.37;;;4.30;99.90;;;;;;5066370;28;20049;-32
2022/03/27 03:17:21;;;;;;;9.03;3.83;;;4.20;99.90;;;;;;5048729;28;20484;-33
2022/03/27 03:19:47;;;;;;;9.60;3.60;;;4.20;99.90;;;;;;5048392;28;20079;-31
2022/03/27 03:22:14;;;;;;;6.77;3.30;;;4.20;99.90;;;;;;5064806;28;20158;-35
2022/03/27 03:24:40;;;;;;;9.03;3.77;;;4.20;99.90;;;;;;5064391;28;20559;-32
2022/03/27 03:27:06;;;;;;;7.50;2.97;;;4.20;99.90;;;;;;5051011;28;20041;-34
2022/03/27 03:29:31;;;;;;;7.97;3.27;;;4.10;99.90;;;;;;5065793;28;20051;-30
2022/03/27 03:31:57;;;;;;;11.07;3.90;;;4.00;99.90;;;;;;5064274;28;20483;-34
2022/03/27 03:34:23;;;;;;;9.83;3.53;;;4.10;99.90;;;;;;5062284;28;20135;-32
2022/03/27 03:36:49;;;;;;;8.87;3.70;;;4.00;99.90;;;;;;5049418;28;20364;-32
2022/03/27 03:39:15;;;;;;;7.23;3.23;;;4.00;99.90;;;;;;5065941;28;20128;-34
2022/03/27 03:41:40;;;;;;;12.17;3.67;;;4.00;99.90;;;;;;5061240;28;20059;-31
2022/03/27 03:44:07;;;;;;;10.27;3.20;;;3.90;99.90;;;;;;5043593;28;20099;-30
2022/03/27 03:46:33;;;;;;;8.73;3.53;;;3.90;99.90;;;;;;5049839;28;20055;-32
2022/03/27 03:48:59;;;;;;;9.63;3.60;;;3.90;99.90;;;;;;5061247;28;20557;-34
2022/03/27 03:51:24;;;;;;;14.50;4.20;;;3.90;99.90;;;;;;5064467;28;20051;-31
2022/03/27 03:53:50;;;;;;;11.07;3.57;;;3.80;99.90;;;;;;5064462;28;20109;-34
2022/03/27 03:56:16;;;;;;;8.53;3.60;;;3.80;99.90;;;;;;5038622;28;20052;-31
2022/03/27 03:58:41;;;;;;;11.67;3.40;;;3.80;99.90;;;;;;5060966;28;20080;-33
2022/03/27 04:01:07;;;;;;;12.83;3.67;;;3.70;99.90;;;;;;5062078;28;20094;-33
2022/03/27 04:03:33;;;;;;;7.90;3.13;;;3.70;99.90;;;;;;5063105;28;20041;-34
2022/03/27 04:05:59;;;;;;;8.13;3.40;;;3.70;99.90;;;;;;5065081;28;20056;-34
2022/03/27 04:08:25;;;;;;;11.57;3.90;;;3.60;99.90;;;;;;5049947;28;20049;-34
2022/03/27 04:10:51;;;;;;;8.53;3.67;;;3.60;99.90;;;;;;5068760;28;20287;-34
2022/03/27 04:13:16;;;;;;;13.37;3.90;;;3.60;99.90;;;;;;5043760;28;20047;-35
2022/03/27 04:15:42;;;;;;;9.00;3.43;;;3.60;99.90;;;;;;5062815;28;20074;-32
2022/03/27 04:18:09;;;;;;;12.60;3.87;;;3.50;99.90;;;;;;5044564;28;20404;-31
2022/03/27 04:20:35;;;;;;;12.40;3.57;;;3.50;99.90;;;;;;5062043;28;20057;-32
2022/03/27 04:23:01;;;;;;;12.07;3.93;;;3.50;99.90;;;;;;5066582;28;20530;-31
2022/03/27 04:25:27;;;;;;;13.83;4.10;;;3.50;99.90;;;;;;5069135;28;20044;-33
2022/03/27 04:27:53;;;;;;;14.03;4.07;;;3.40;99.90;;;;;;5052729;28;20542;-33
2022/03/27 04:30:20;;;;;;;17.47;4.40;;;3.50;99.90;;;;;;5066855;28;20084;-32
2022/03/27 04:32:46;;;;;;;12.80;4.23;;;3.50;99.90;;;;;;5066883;28;20032;-35
2022/03/27 04:35:12;;;;;;;15.57;4.07;;;3.40;99.90;;;;;;5067915;28;20044;-30
2022/03/27 04:37:42;;;;;;;14.77;4.40;;;3.40;99.90;;;;;;5052894;28;20094;-31
2022/03/27 04:40:13;;;;;;;18.50;4.40;;;3.40;99.90;;;;;;5066473;28;20091;-31
2022/03/27 04:42:40;;;;;;;11.38;3.10;;;3.40;99.90;;;;;;5065825;28;20040;-32
2022/03/27 04:45:07;;;;;;;18.40;5.10;;;3.40;99.90;;;;;;5066324;28;20381;-34
2022/03/27 04:47:33;;;;;;;14.70;3.30;;;3.40;99.90;;;;;;5052497;28;20071;-31
2022/03/27 04:49:58;;;;;;;12.47;3.67;;;3.30;99.90;;;;;;5064647;28;20048;-34
2022/03/27 04:52:24;;;;;;;14.27;4.20;;;3.30;99.90;;;;;;5064833;28;20289;-34
2022/03/27 04:54:50;;;;;;;12.00;3.63;;;3.30;99.90;;;;;;5068564;28;20125;-32
2022/03/27 04:57:16;;;;;;;13.47;3.70;;;3.30;99.90;;;;;;5052715;28;20521;-33
2022/03/27 04:59:42;;;;;;;11.27;3.17;;;3.20;99.90;;;;;;5066840;28;20040;-33
2022/03/27 05:02:07;;;;;;;12.27;3.37;;;3.20;99.90;;;;;;5067125;28;20109;-32
2022/03/27 05:04:33;;;;;;;12.93;3.07;;;3.20;99.90;;;;;;5064752;28;20099;-30
2022/03/27 05:06:59;;;;;;;11.23;3.17;;;3.20;99.90;;;;;;5052799;28;20647;-34
2022/03/27 05:09:25;;;;;;;13.23;3.33;;;3.20;99.90;;;;;;5067805;28;20083;-33
2022/03/27 05:11:50;;;;;;;15.50;3.17;;;3.20;99.90;;;;;;5067195;28;20067;-33
2022/03/27 05:14:16;;;;;;;11.87;2.73;;;3.20;99.90;;;;;;5067630;28;20043;-32
2022/03/27 05:16:42;;;;;;;12.57;2.93;;;3.20;99.90;;;;;;5054037;28;20048;-32
2022/03/27 05:19:08;;;;;;;15.20;3.60;;;3.20;99.90;;;;;;5065166;28;20113;-33
2022/03/27 05:21:34;;;;;;;14.73;3.17;;;3.20;99.90;;;;;;5067605;28;20641;-32
2022/03/27 05:24:01;;;;;;;16.67;3.23;;;3.20;99.90;;;;;;5064874;28;20057;-32
2022/03/27 05:26:27;;;;;;;14.70;3.30;;;3.20;99.90;;;;;;5055320;28;20985;-34
2022/03/27 05:28:54;;;;;;;16.00;3.87;;;3.20;99.90;;;;;;5063351;28;20487;-37
2022/03/27 05:31:20;;;;;;;25.33;5.07;;;3.20;99.90;;;;;;5063972;28;20045;-33
2022/03/27 05:33:46;;;;;;;18.87;4.53;;;3.20;99.90;;;;;;5064276;28;20682;-32
2022/03/27 05:36:12;;;;;;;16.70;4.50;;;3.20;99.90;;;;;;5059811;28;20080;-33
2022/03/27 05:38:39;;;;;;;20.10;4.97;;;3.30;99.90;;;;;;5057843;28;20049;-34
2022/03/27 05:41:07;;;;;;;27.67;5.53;;;3.20;99.90;;;;;;5064035;28;20101;-31
2022/03/27 05:43:34;;;;;;;25.77;5.57;;;3.20;99.90;;;;;;5063439;28;20503;-31
2022/03/27 05:45:59;;;;;;;30.73;5.97;;;3.30;99.90;;;;;;5059331;28;20058;-32
2022/03/27 05:48:25;;;;;;;28.37;5.53;;;3.30;99.90;;;;;;5049499;28;20397;-33
2022/03/27 05:50:51;;;;;;;37.70;6.17;;;3.30;99.90;;;;;;5060490;28;20194;-31
2022/03/27 05:53:17;;;;;;;36.97;6.40;;;3.30;99.90;;;;;;5062426;28;20041;-33
2022/03/27 05:55:43;;;;;;;31.17;6.50;;;3.40;99.90;;;;;;5067150;28;20093;-30
2022/03/27 05:58:09;;;;;;;29.27;5.80;;;3.40;99.90;;;;;;5050906;28;20139;-31
2022/03/27 06:00:34;;;;;;;32.30;5.87;;;3.40;99.90;;;;;;5064237;28;20131;-33
2022/03/27 06:03:00;;;;;;;37.87;6.50;;;3.40;99.90;;;;;;5063395;28;20427;-33
2022/03/27 06:05:26;;;;;;;33.00;6.03;;;3.50;99.90;;;;;;5065335;28;20055;-33
2022/03/27 06:07:54;;;;;;;31.40;5.80;;;3.50;99.90;;;;;;5050932;28;20044;-34
2022/03/27 06:10:22;;;;;;;35.57;6.30;;;3.60;99.90;;;;;;5067465;28;20121;-34
2022/03/27 06:12:48;;;;;;;32.73;6.60;;;3.60;99.90;;;;;;5063972;28;20511;-34
2022/03/27 06:15:15;;;;;;;30.73;6.27;;;3.70;99.90;;;;;;5061963;28;20530;-31
2022/03/27 06:17:47;;;;;;;34.40;6.17;;;3.70;99.90;;;;;;5050548;28;20040;-33
2022/03/27 06:20:18;;;;;;;34.33;5.83;;;3.80;99.90;;;;;;5064632;28;20166;-33
2022/03/27 06:22:44;;;;;;;38.83;6.63;;;3.80;99.90;;;;;;5063359;28;21389;-31
2022/03/27 06:25:15;;;;;;;38.13;6.87;;;3.90;99.90;;;;;;5065661;28;20423;-30
2022/03/27 06:27:41;;;;;;;;;;;4.00;99.90;;;;;;5050735;28;20653;-33
2022/03/27 06:30:09;;;;;;;40.67;6.47;;;4.00;99.90;;;;;;5067039;28;19924;-31
2022/03/27 06:32:36;;;;;;;42.50;6.73;;;4.10;99.90;;;;;;5061092;28;20053;-31
2022/03/27 06:35:04;;;;;;;35.83;6.70;;;4.20;99.90;;;;;;5067196;28;20063;-32
2022/03/27 06:37:30;;;;;;;39.47;7.80;;;4.20;99.90;;;;;;5050765;28;20036;-34
2022/03/27 06:39:56;;;;;;;43.70;8.10;;;4.30;99.90;;;;;;5067059;28;20205;-34
2022/03/27 06:42:24;;;;;;;35.53;7.87;;;4.40;99.90;;;;;;5063286;28;20067;-35
2022/03/27 06:44:51;;;;;;;47.83;8.87;;;4.40;99.90;;;;;;5066715;28;20048;-34
2022/03/27 06:47:18;;;;;;;42.80;8.03;;;4.60;99.90;;;;;;5050475;28;20047;-32
2022/03/27 06:49:44;;;;;;;25.90;5.63;;;4.60;99.90;;;;;;5066207;28;20273;-34
2022/03/27 06:52:10;;;;;;;24.83;6.30;;;4.70;99.90;;;;;;5058828;28;20127;-32
2022/03/27 06:54:36;;;;;;;25.47;9.03;;;4.80;99.90;;;;;;5048843;28;20137;-32
2022/03/27 06:57:02;;;;;;;32.90;7.60;;;4.80;99.90;;;;;;5048036;28;20197;-31
2022/03/27 06:59:28;;;;;;;24.00;8.60;;;4.90;99.90;;;;;;5061618;28;20132;-33
2022/03/27 07:04:38;;;;;;;40.43;9.30;;;5.00;99.90;;;;;;5065291;28;20514;-30
2022/03/27 07:07:03;;;;;;;39.10;9.20;;;5.10;99.90;;;;;;5049374;28;20048;-32
2022/03/27 07:09:29;;;;;;;50.87;9.90;;;5.20;99.90;;;;;;5062967;28;20063;-33
2022/03/27 07:11:55;;;;;;;55.07;10.23;;;5.30;99.90;;;;;;5065097;28;20048;-31
2022/03/27 07:14:20;;;;;;;45.83;9.37;;;5.30;99.90;;;;;;5065575;28;20144;-34
2022/03/27 07:16:46;;;;;;;51.87;9.83;;;5.50;99.90;;;;;;5051298;28;20510;-33
2022/03/27 07:19:14;;;;;;;58.70;10.17;;;5.60;99.90;;;;;;5065247;28;20048;-33
2022/03/27 07:21:41;;;;;;;66.37;11.37;;;5.60;99.90;;;;;;5065845;28;20045;-35
2022/03/27 07:24:07;;;;;;;61.83;11.50;;;5.70;99.90;;;;;;5065613;28;20048;-31
2022/03/27 07:26:35;;;;;;;64.57;10.63;;;5.80;99.90;;;;;;5052792;28;20056;-30
2022/03/27 07:29:02;;;;;;;58.20;11.07;;;5.90;99.90;;;;;;5059577;28;20113;-33
2022/03/27 07:31:28;;;;;;;57.63;10.60;;;6.00;99.90;;;;;;5061919;28;20103;-31
2022/03/27 07:33:55;;;;;;;53.13;10.80;;;6.10;99.90;;;;;;5063467;28;20064;-34
2022/03/27 07:36:21;;;;;;;57.40;10.63;;;6.20;99.90;;;;;;5055425;28;20119;-35
2022/03/27 07:38:46;;;;;;;63.17;10.97;;;6.30;99.90;;;;;;5060810;28;20388;-32
2022/03/27 07:41:12;;;;;;;52.50;10.43;;;6.40;99.90;;;;;;5062785;28;20052;-36
2022/03/27 07:43:38;;;;;;;49.90;10.37;;;6.40;99.90;;;;;;5067802;28;20082;-34
2022/03/27 07:46:04;;;;;;;54.37;11.27;;;6.40;99.90;;;;;;5067910;28;20049;-33
2022/03/27 07:48:29;;;;;;;51.77;10.50;;;6.60;99.90;;;;;;5052907;28;20048;-34
2022/03/27 07:50:56;;;;;;;58.20;11.30;;;6.60;99.90;;;;;;5066459;28;20040;-32
2022/03/27 07:53:24;;;;;;;64.30;11.13;;;6.70;99.90;;;;;;5067507;28;20044;-34
2022/03/27 07:55:50;;;;;;;62.80;11.20;;;6.70;99.90;;;;;;5070045;28;20048;-33
2022/03/27 07:58:17;;;;;;;54.70;11.70;;;6.80;99.90;;;;;;5053550;28;20518;-31
2022/03/27 08:00:43;;;;;;;39.63;11.10;;;6.90;99.90;;;;;;5066423;28;20040;-34
2022/03/27 08:03:08;;;;;;;51.77;11.70;;;6.90;99.90;;;;;;5065709;28;20475;-33
2022/03/27 08:05:34;;;;;;;50.50;11.40;;;7.00;99.90;;;;;;5067794;28;20044;-32
2022/03/27 08:08:00;;;;;;;56.70;11.20;;;7.10;99.90;;;;;;5050261;28;20249;-32
2022/03/27 08:10:25;;;;;;;56.90;11.83;;;7.20;99.90;;;;;;5069522;28;20041;-32
2022/03/27 08:12:52;;;;;;;58.43;11.43;;;7.20;99.90;;;;;;5068180;28;20086;-32
2022/03/27 08:15:18;;;;;;;56.33;11.80;;;7.40;99.90;;;;;;5070101;28;20512;-33
2022/03/27 08:17:44;;;;;;;53.60;11.10;;;7.30;99.90;;;;;;5052876;28;20227;-32
2022/03/27 08:20:10;;;;;;;50.13;10.93;;;7.40;99.90;;;;;;5069549;28;20156;-33
2022/03/27 08:22:36;;;;;;;62.90;12.27;;;7.50;99.90;;;;;;5064570;28;20043;-31
2022/03/27 08:25:02;;;;;;;58.80;11.47;;;7.60;99.90;;;;;;5068765;28;20052;-33
2022/03/27 08:27:31;;;;;;;51.40;10.93;;;7.60;99.90;;;;;;5051099;28;20073;-35
2022/03/27 08:29:57;;;;;;;45.63;11.13;;;7.60;99.90;;;;;;5068991;28;20721;-34
2022/03/27 08:32:23;;;;;;;48.93;10.70;;;7.70;99.90;;;;;;5064098;28;20156;-32
2022/03/27 08:34:49;;;;;;;54.47;10.93;;;7.70;99.90;;;;;;5060922;28;20049;-36
2022/03/27 08:37:16;;;;;;;52.90;10.77;;;7.80;99.90;;;;;;5047366;28;20040;-34
2022/03/27 08:39:44;;;;;;;50.17;11.23;;;7.90;99.90;;;;;;5062404;28;20059;-35
2022/03/27 08:42:11;;;;;;;42.23;10.57;;;7.90;99.90;;;;;;5058856;28;20063;-34
2022/03/27 08:44:37;;;;;;;44.43;11.10;;;8.00;99.90;;;;;;5062597;28;20052;-33
2022/03/27 08:47:13;;;;;;;51.07;12.17;;;8.10;99.90;;;;;;5038918;28;20803;-35
2022/03/27 08:49:40;;;;;;;59.23;11.70;;;8.10;99.90;;;;;;5049828;28;20048;-32
2022/03/27 08:52:19;;;;;;;54.37;11.23;;;8.10;99.90;;;;;;5051174;28;20515;-34
2022/03/27 08:55:07;;;;;;;53.13;10.63;;;8.20;99.90;;;;;;5050755;28;20059;-34
2022/03/27 08:57:50;;;;;;;55.03;10.83;;;8.20;99.90;;;;;;5037427;28;20083;-35
2022/03/27 09:00:19;;;;;;;53.73;11.60;;;8.30;99.90;;;;;;5054679;28;20071;-32
2022/03/27 09:02:45;;;;;;;50.97;10.57;;;8.30;99.90;;;;;;5052364;28;20048;-32
2022/03/27 09:05:11;;;;;;;48.47;10.43;;;8.30;99.90;;;;;;5052864;28;20102;-34
2022/03/27 09:07:37;;;;;;;50.90;9.97;;;8.40;99.90;;;;;;5014114;28;20061;-35
2022/03/27 09:10:11;;;;;;;54.73;11.77;;;8.40;99.90;;;;;;5063247;28;20047;-36
2022/03/27 09:12:36;;;;;;;42.03;10.77;;;8.40;99.90;;;;;;5062107;28;20049;-36
2022/03/27 09:15:08;;;;;;;50.50;11.10;;;8.50;99.90;;;;;;5062906;28;20071;-36
2022/03/27 09:17:54;;;;;;;;;;;8.60;99.90;;;;;;5047566;28;20053;-35
2022/03/27 09:20:53;;;;;;;44.80;11.00;;;8.60;99.90;;;;;;5062024;28;19954;-32
2022/03/27 09:23:22;;;;;;;47.97;10.13;;;8.70;99.90;;;;;;5052683;28;20049;-35
2022/03/27 09:26:21;;;;;;;54.70;11.00;;;8.70;99.90;;;;;;5063338;28;20053;-36
2022/03/27 09:28:53;;;;;;;41.30;10.10;;;8.80;99.90;;;;;;5062799;28;20049;-35
2022/03/27 09:31:19;;;;;;;51.27;10.40;;;8.90;99.90;;;;;;5060385;28;20102;-35
2022/03/27 09:33:52;;;;;;;49.93;10.30;;;8.90;99.90;;;;;;5051393;28;20045;-34
2022/03/27 09:36:22;;;;;;;46.77;9.73;;;9.00;99.90;;;;;;5043875;28;20068;-33
2022/03/27 09:39:12;;;;;;;44.07;10.00;;;9.00;99.90;;;;;;5045582;28;20513;-34
2022/03/27 09:41:58;;;;;;;43.23;9.60;;;9.10;99.90;;;;;;5062090;28;20179;-34
2022/03/27 09:44:36;;;;;;;41.73;10.40;;;9.20;99.90;;;;;;5059080;28;20658;-35
2022/03/27 09:47:02;;;;;;;43.20;9.57;;;9.20;99.90;;;;;;5049753;28;20500;-35
2022/03/27 09:49:30;;;;;;;47.90;10.13;;;9.30;99.90;;;;;;5065654;28;20127;-36
2022/03/27 09:52:08;;;;;;;38.47;8.80;;;9.30;99.90;;;;;;5062890;28;20059;-32
2022/03/27 09:54:59;;;;;;;45.63;10.93;;;9.40;99.90;;;;;;5065146;28;20145;-34
2022/03/27 09:57:25;;;;;;;;;;;9.50;99.90;;;;;;5051632;28;20526;-35
2022/03/27 09:59:52;;;;;;;38.87;8.77;;;9.50;99.90;;;;;;5066662;28;19916;-34
2022/03/27 10:02:23;;;;;;;36.63;8.47;;;9.50;99.90;;;;;;5062387;28;20049;-37
2022/03/27 10:04:54;;;;;;;35.67;8.25;;;9.60;99.90;;;;;;5065121;28;20534;-34
2022/03/27 10:07:22;;;;;;;41.85;9.32;;;9.70;99.90;;;;;;5051269;28;20552;-37
2022/03/27 10:09:48;;;;;;;30.10;7.87;;;9.80;99.90;;;;;;5062444;28;20036;-36
2022/03/27 10:12:15;;;;;;;46.83;8.53;;;9.60;99.90;;;;;;5062915;28;20120;-35
2022/03/27 10:14:43;;;;;;;32.87;8.13;;;9.80;99.90;;;;;;5062287;28;20040;-36
2022/03/27 10:17:12;;;;;;;40.40;8.03;;;9.80;99.90;;;;;;5050860;28;20048;-37
2022/03/27 10:20:06;;;;;;;33.07;8.53;;;9.90;99.90;;;;;;5066565;28;20121;-34
2022/03/27 10:22:37;;;;;;;35.67;8.00;;;9.90;99.90;;;;;;5065226;28;20449;-37
2022/03/27 10:25:04;;;;;;;38.47;8.95;;;10.00;99.90;;;;;;5064992;28;20132;-36
2022/03/27 10:27:31;;;;;;;31.77;8.10;;;10.00;99.90;;;;;;5048937;28;20056;-36
2022/03/27 10:29:59;;;;;;;40.17;8.27;;;10.10;99.90;;;;;;5064830;28;20070;-34
2022/03/27 10:32:26;;;;;;;34.50;7.60;;;10.10;99.90;;;;;;5063734;28;20089;-35
2022/03/27 10:35:19;;;;;;;36.87;8.17;;;10.20;99.90;;;;;;5066693;28;20198;-34
2022/03/27 10:38:10;;;;;;;29.40;7.53;;;10.20;99.90;;;;;;5043320;28;20049;-35
2022/03/27 10:41:04;;;;;;;34.00;7.85;;;10.30;99.90;;;;;;5063563;28;20541;-34
2022/03/27 10:43:54;;;;;;;29.93;6.53;;;10.40;99.90;;;;;;5062425;28;20449;-36
2022/03/27 10:46:25;;;;;;;30.50;7.17;;;10.40;99.90;;;;;;5055412;28;20141;-37
2022/03/27 10:48:53;;;;;;;35.95;7.20;;;10.50;99.90;;;;;;5060442;28;20174;-36
2022/03/27 10:51:25;;;;;;;30.47;6.97;;;10.60;99.90;;;;;;5063924;28;20576;-35
2022/03/27 10:54:09;;;;;;;31.63;7.60;;;10.70;99.90;;;;;;5065020;28;20419;-36
2022/03/27 10:56:45;;;;;;;36.03;6.77;;;10.80;99.90;;;;;;5051944;28;20547;-35
2022/03/27 10:59:24;;;;;;;29.97;7.23;;;10.90;99.90;;;;;;5062946;28;20492;-33
2022/03/27 11:01:55;;;;;;;27.80;6.60;;;11.00;99.90;;;;;;5057562;28;20059;-36
2022/03/27 11:04:38;;;;;;;30.90;6.55;;;11.10;99.90;;;;;;5061158;28;20422;-34
2022/03/27 11:07:13;;;;;;;25.83;6.20;;;11.10;99.90;;;;;;5042208;28;20044;-40
2022/03/27 11:09:39;;;;;;;32.50;6.83;;;11.20;99.90;;;;;;5058066;28;20335;-33
2022/03/27 11:12:07;;;;;;;22.53;5.83;;;11.20;99.90;;;;;;5050864;28;20045;-34
2022/03/27 11:14:58;;;;;;;26.77;6.23;;;11.30;99.90;;;;;;5054531;28;20084;-35
2022/03/27 11:17:31;;;;;;;39.20;6.75;;;11.40;99.90;;;;;;5041503;28;20053;-36
2022/03/27 11:19:58;;;;;;;25.65;5.90;;;11.30;99.90;;;;;;5061079;28;20049;-35
2022/03/27 11:22:44;;;;;;;30.20;6.43;;;11.50;99.90;;;;;;5061854;28;20447;-34
2022/03/27 11:25:31;;;;;;;25.83;5.70;;;11.50;99.90;;;;;;5059709;28;20060;-36
2022/03/27 11:28:06;;;;;;;28.67;6.05;;;11.60;99.90;;;;;;5043367;28;20041;-37
2022/03/27 11:30:34;;;;;;;26.42;6.13;;;11.60;99.90;;;;;;5059369;28;20136;-34
2022/03/27 11:33:30;;;;;;;20.58;5.40;;;11.70;99.90;;;;;;5059621;28;20044;-36
2022/03/27 11:36:01;;;;;;;23.60;5.35;;;11.80;99.90;;;;;;5059512;28;20564;-35
2022/03/27 11:38:50;;;;;;;22.17;5.13;;;11.80;99.90;;;;;;5026861;28;20053;-34
2022/03/27 11:41:25;;;;;;;18.27;5.05;;;11.90;99.90;;;;;;5056834;28;20055;-34
2022/03/27 11:43:55;;;;;;;25.92;5.68;;;12.00;99.90;;;;;;5039723;28;20135;-37
2022/03/27 11:46:26;;;;;;;25.67;5.65;;;12.10;99.90;;;;;;5046555;28;20479;-37
2022/03/27 11:48:56;;;;;;;33.25;5.88;;;12.20;99.90;;;;;;5052972;28;20500;-36
2022/03/27 11:51:24;;;;;;;22.10;4.97;;;12.20;99.90;;;;;;5062582;28;20036;-36
2022/03/27 11:53:51;;;;;;;25.52;5.65;;;12.30;99.90;;;;;;5057928;28;20090;-36
2022/03/27 11:56:17;;;;;;;23.88;5.95;;;12.40;99.90;;;;;;5047552;28;20083;-36
2022/03/27 11:58:43;;;;;;;24.83;5.50;;;12.50;99.90;;;;;;5052190;28;20533;-34
2022/03/27 12:01:09;;;;;;;24.05;6.15;;;12.50;99.90;;;;;;5056819;28;20399;-38
2022/03/27 12:03:37;;;;;;;27.35;6.22;;;12.50;99.90;;;;;;5059189;28;20045;-37
2022/03/27 12:06:05;;;;;;;24.17;5.55;;;12.60;99.90;;;;;;5067351;28;20131;-37
2022/03/27 12:08:36;;;;;;;21.48;5.43;;;12.70;99.90;;;;;;5051049;28;20037;-37
2022/03/27 12:11:06;;;;;;;29.88;5.85;;;12.70;99.90;;;;;;5067186;28;20076;-37
2022/03/27 12:13:43;;;;;;;23.35;5.30;;;12.80;99.90;;;;;;5061598;28;20415;-34
2022/03/27 12:16:23;;;;;;;27.58;5.97;;;12.90;99.90;;;;;;5058341;28;20045;-37
2022/03/27 12:18:50;;;;;;;24.38;5.68;;;13.00;99.90;;;;;;5064008;28;20135;-36
2022/03/27 12:21:21;;;;;;;23.75;5.78;;;12.90;99.90;;;;;;5066790;28;20056;-36
2022/03/27 12:23:51;;;;;;;24.83;5.45;;;12.90;99.90;;;;;;5065844;28;20059;-33
2022/03/27 12:31:53;;;;;;;28.35;5.82;;;13.00;99.90;;;;;;5058354;28;20707;-35
2022/03/27 12:34:20;;;;;;;26.63;6.45;;;13.00;99.90;;;;;;5060750;28;20537;-33
2022/03/27 12:37:09;;;;;;;28.17;6.32;;;13.00;99.90;;;;;;5041213;28;20115;-35
2022/03/27 12:39:55;;;;;;;29.08;6.32;;;13.00;99.90;;;;;;5058567;28;20040;-35
2022/03/27 12:42:40;;;;;;;21.38;5.35;;;13.00;99.90;;;;;;5054805;28;20319;-35
2022/03/27 12:45:14;;;;;;;26.05;5.50;;;13.10;99.90;;;;;;5056750;28;20491;-36
2022/03/27 12:47:42;;;;;;;23.75;6.18;;;13.10;99.90;;;;;;5041864;28;20315;-34
2022/03/27 12:50:12;;;;;;;24.00;6.40;;;13.10;99.90;;;;;;5065413;28;20056;-31
2022/03/27 12:52:52;;;;;;;27.77;6.80;;;13.10;99.90;;;;;;5065662;28;20538;-33
2022/03/27 12:55:18;;;;;;;27.33;5.90;;;13.10;99.90;;;;;;5067946;28;20056;-35
2022/03/27 12:57:55;;;;;;;23.23;6.18;;;13.10;99.90;;;;;;5049683;28;20175;-35
2022/03/27 13:00:23;;;;;;;24.23;5.82;;;13.20;99.90;;;;;;5064151;28;20045;-34
2022/03/27 13:02:49;;;;;;;24.65;5.93;;;13.20;99.90;;;;;;5065536;28;20048;-33